createdAt,value
2018-02-03T00:00:56.357Z,3.60
2018-02-03T00:03:22.335Z,3.50
2018-02-03T00:05:49.080Z,3.70
2018-02-03T00:08:15.826Z,3.50
2018-02-03T00:10:42.745Z,3.60
2018-02-03T00:13:09.647Z,3.40
2018-02-03T00:15:35.686Z,3.40
2018-02-03T00:18:03.627Z,3.50
2018-02-03T00:20:32.267Z,3.40
2018-02-03T00:23:00.963Z,3.40
2018-02-03T00:25:27.054Z,3.40
2018-02-03T00:27:53.031Z,3.40
2018-02-03T00:30:19.638Z,3.40
2018-02-03T00:32:45.741Z,3.50
2018-02-03T00:35:11.819Z,3.50
2018-02-03T00:37:37.831Z,3.50
2018-02-03T00:40:04.130Z,3.50
2018-02-03T00:42:31.151Z,3.50
2018-02-03T00:44:57.149Z,3.40
2018-02-03T00:47:23.151Z,3.50
2018-02-03T00:49:49.735Z,3.70
2018-02-03T00:52:17.254Z,3.60
2018-02-03T00:54:43.772Z,3.60
2018-02-03T00:57:09.732Z,3.60
2018-02-03T00:59:36.270Z,3.60
2018-02-03T01:02:02.497Z,3.70
2018-02-03T01:04:28.526Z,3.70
2018-02-03T01:06:54.527Z,3.70
2018-02-03T01:09:26.536Z,3.70
2018-02-03T01:11:53.363Z,3.70
2018-02-03T01:14:20.199Z,3.70
2018-02-03T01:16:47.130Z,3.60
2018-02-03T01:19:15.303Z,3.60
2018-02-03T01:21:41.894Z,3.60
2018-02-03T01:24:07.907Z,3.60
2018-02-03T01:26:33.976Z,3.70
2018-02-03T01:28:59.998Z,3.70
2018-02-03T01:31:26.829Z,3.60
2018-02-03T01:33:53.464Z,3.80
2018-02-03T01:36:19.407Z,3.70
2018-02-03T01:38:47.406Z,3.70
2018-02-03T01:41:13.549Z,3.70
2018-02-03T01:43:39.504Z,3.70
2018-02-03T01:46:06.243Z,3.70
2018-02-03T01:48:32.169Z,3.80
2018-02-03T01:50:58.145Z,3.80
2018-02-03T01:53:24.218Z,3.70
2018-02-03T01:55:50.170Z,3.70
2018-02-03T01:58:16.569Z,3.70
2018-02-03T02:00:42.672Z,3.70
2018-02-03T02:03:10.314Z,3.90
2018-02-03T02:05:37.532Z,3.90
2018-02-03T02:08:03.531Z,3.80
2018-02-03T02:10:29.569Z,3.70
2018-02-03T02:12:55.736Z,3.80
2018-02-03T02:15:22.295Z,3.70
2018-02-03T02:17:49.150Z,3.70
2018-02-03T02:20:17.995Z,3.70
2018-02-03T02:22:44.278Z,3.60
2018-02-03T02:25:10.237Z,3.60
2018-02-03T02:27:36.154Z,3.60
2018-02-03T02:30:02.447Z,3.60
2018-02-03T02:32:28.462Z,3.60
2018-02-03T02:34:55.335Z,3.60
2018-02-03T02:37:21.570Z,3.50
2018-02-03T02:39:49.130Z,3.50
2018-02-03T02:42:16.295Z,3.30
2018-02-03T02:44:42.261Z,3.20
2018-02-03T02:47:09.054Z,3.30
2018-02-03T02:49:35.023Z,3.30
2018-02-03T02:52:01.919Z,3.40
2018-02-03T02:54:27.935Z,3.30
2018-02-03T02:56:54.879Z,3.10
2018-02-03T02:59:20.894Z,3.20
2018-02-03T03:01:46.902Z,3.10
2018-02-03T03:04:12.849Z,3.20
2018-02-03T03:06:38.843Z,3.10
2018-02-03T03:09:04.971Z,3.10
2018-02-03T03:11:31.953Z,3.00
2018-02-03T03:13:58.006Z,3.10
2018-02-03T03:16:23.939Z,3.20
2018-02-03T03:18:49.888Z,3.10
2018-02-03T03:21:16.736Z,3.10
2018-02-03T03:23:42.687Z,3.10
2018-02-03T03:26:08.886Z,3.10
2018-02-03T03:28:34.822Z,2.90
2018-02-03T03:31:00.773Z,3.00
2018-02-03T03:33:27.469Z,3.10
2018-02-03T03:35:54.431Z,3.00
2018-02-03T03:38:21.112Z,3.00
2018-02-03T03:40:47.061Z,3.00
2018-02-03T03:43:13.008Z,3.00
2018-02-03T03:45:38.921Z,2.90
2018-02-03T03:48:04.905Z,3.10
2018-02-03T03:50:31.866Z,3.00
2018-02-03T03:52:58.468Z,2.90
2018-02-03T03:55:24.432Z,3.00
2018-02-03T03:57:50.365Z,3.10
2018-02-03T04:00:16.312Z,3.00
2018-02-03T04:02:42.306Z,3.10
2018-02-03T04:05:08.287Z,3.00
2018-02-03T04:07:35.094Z,3.00
2018-02-03T04:10:01.824Z,3.00
2018-02-03T04:12:29.021Z,3.00
2018-02-03T04:14:54.996Z,3.00
2018-02-03T04:17:20.947Z,3.00
2018-02-03T04:19:46.905Z,3.00
2018-02-03T04:22:12.868Z,2.90
2018-02-03T04:24:38.846Z,3.00
2018-02-03T04:27:04.919Z,3.00
2018-02-03T04:29:31.615Z,3.00
2018-02-03T04:31:57.697Z,3.00
2018-02-03T04:34:24.563Z,3.00
2018-02-03T04:36:51.468Z,3.00
2018-02-03T04:39:18.244Z,3.10
2018-02-03T04:41:44.201Z,3.10
2018-02-03T04:44:10.183Z,3.10
2018-02-03T04:46:36.114Z,3.20
2018-02-03T04:49:02.976Z,3.20
2018-02-03T04:51:28.922Z,3.20
2018-02-03T04:53:54.865Z,3.10
2018-02-03T04:56:20.854Z,3.20
2018-02-03T04:58:47.749Z,3.20
2018-02-03T05:01:13.761Z,3.30
2018-02-03T05:03:39.709Z,3.30
2018-02-03T05:06:05.776Z,3.30
2018-02-03T05:08:32.725Z,3.30
2018-02-03T05:10:59.496Z,3.30
2018-02-03T05:13:25.486Z,3.30
2018-02-03T05:15:51.547Z,3.30
2018-02-03T05:18:17.488Z,3.30
2018-02-03T05:20:43.411Z,3.30
2018-02-03T05:23:10.359Z,3.30
2018-02-03T05:25:37.190Z,3.30
2018-02-03T05:28:03.197Z,3.30
2018-02-03T05:30:29.146Z,3.30
2018-02-03T05:32:55.094Z,3.30
2018-02-03T05:35:21.372Z,3.30
2018-02-03T05:37:47.420Z,3.40
2018-02-03T05:40:13.372Z,3.40
2018-02-03T05:42:39.394Z,3.50
2018-02-03T05:45:05.400Z,3.20
2018-02-03T05:47:31.339Z,3.00
2018-02-03T05:49:57.315Z,2.80
2018-02-03T05:52:23.545Z,2.70
2018-02-03T05:54:49.478Z,2.70
2018-02-03T05:57:16.434Z,2.70
2018-02-03T05:59:42.398Z,2.70
2018-02-03T06:02:09.321Z,2.80
2018-02-03T06:04:36.028Z,2.90
2018-02-03T06:07:01.993Z,2.90
2018-02-03T06:09:29.974Z,3.00
2018-02-03T06:11:55.952Z,3.10
2018-02-03T06:14:21.878Z,3.20
2018-02-03T06:16:47.805Z,3.20
2018-02-03T06:19:13.876Z,3.20
2018-02-03T06:21:39.833Z,3.10
2018-02-03T06:24:05.777Z,3.20
2018-02-03T06:26:31.714Z,3.20
2018-02-03T06:28:59.161Z,3.10
2018-02-03T06:31:25.886Z,3.10
2018-02-03T06:33:52.751Z,3.10
2018-02-03T06:36:18.700Z,3.10
2018-02-03T06:38:44.656Z,3.10
2018-02-03T06:41:10.631Z,3.00
2018-02-03T06:43:37.466Z,2.70
2018-02-03T06:46:04.098Z,2.70
2018-02-03T06:48:30.122Z,2.60
2018-02-03T06:50:56.094Z,2.70
2018-02-03T06:53:22.072Z,2.70
2018-02-03T06:55:48.040Z,2.50
2018-02-03T06:58:14.004Z,2.50
2018-02-03T07:00:39.947Z,2.40
2018-02-03T07:03:06.667Z,2.40
2018-02-03T07:05:32.616Z,2.40
2018-02-03T07:07:59.476Z,2.50
2018-02-03T07:10:25.407Z,2.50
2018-02-03T07:12:51.341Z,2.50
2018-02-03T07:15:17.262Z,2.70
2018-02-03T07:17:44.052Z,2.70
2018-02-03T07:20:09.984Z,2.80
2018-02-03T07:22:35.934Z,2.80
2018-02-03T07:25:01.915Z,2.80
2018-02-03T07:27:27.919Z,2.80
2018-02-03T07:29:53.923Z,2.80
2018-02-03T07:32:19.898Z,2.90
2018-02-03T07:34:45.859Z,3.00
2018-02-03T07:37:12.485Z,3.00
2018-02-03T07:39:39.231Z,3.10
2018-02-03T07:42:05.159Z,3.00
2018-02-03T07:44:31.088Z,3.10
2018-02-03T07:47:00.743Z,3.10
2018-02-03T07:49:26.722Z,3.00
2018-02-03T07:51:55.254Z,3.10
2018-02-03T07:54:22.243Z,3.10
2018-02-03T07:56:48.234Z,3.20
2018-02-03T07:59:15.076Z,3.10
2018-02-03T08:01:41.041Z,3.10
2018-02-03T08:04:07.033Z,3.10
2018-02-03T08:06:33.715Z,2.90
2018-02-03T08:08:59.646Z,2.80
2018-02-03T08:11:25.704Z,2.90
2018-02-03T08:13:51.694Z,2.80
2018-02-03T08:16:17.667Z,2.90
2018-02-03T08:18:43.726Z,2.80
2018-02-03T08:21:11.572Z,2.90
2018-02-03T08:23:37.828Z,3.10
2018-02-03T08:26:04.526Z,3.30
2018-02-03T08:28:33.146Z,3.40
2018-02-03T08:30:59.335Z,3.40
2018-02-03T08:33:27.177Z,3.40
2018-02-03T08:35:53.156Z,3.30
2018-02-03T08:38:19.187Z,3.40
2018-02-03T08:40:45.918Z,3.60
2018-02-03T08:43:12.015Z,3.60
2018-02-03T08:45:38.027Z,3.60
2018-02-03T08:48:04.550Z,3.70
2018-02-03T08:50:30.508Z,3.50
2018-02-03T08:52:58.184Z,3.50
2018-02-03T08:55:25.896Z,3.50
2018-02-03T08:57:53.424Z,3.40
2018-02-03T09:00:19.508Z,3.40
2018-02-03T09:02:46.486Z,3.50
2018-02-03T09:05:12.451Z,3.50
2018-02-03T09:07:38.405Z,3.60
2018-02-03T09:10:04.442Z,3.60
2018-02-03T09:12:30.437Z,3.50
2018-02-03T09:14:57.127Z,3.60
2018-02-03T09:17:24.023Z,3.50
2018-02-03T09:19:51.676Z,3.70
2018-02-03T09:22:17.683Z,3.60
2018-02-03T09:24:44.764Z,3.70
2018-02-03T09:27:10.886Z,3.80
2018-02-03T09:29:36.866Z,3.90
2018-02-03T09:32:02.833Z,4.00
2018-02-03T09:34:31.174Z,4.10
2018-02-03T09:36:58.018Z,4.20
2018-02-03T09:39:24.068Z,4.30
2018-02-03T09:41:51.379Z,4.30
2018-02-03T09:44:17.346Z,4.20
2018-02-03T09:46:43.341Z,4.20
2018-02-03T09:49:11.338Z,4.20
2018-02-03T09:51:37.675Z,4.40
2018-02-03T09:54:03.703Z,4.50
2018-02-03T09:56:30.615Z,4.50
2018-02-03T09:58:58.214Z,4.50
2018-02-03T10:01:24.194Z,4.50
2018-02-03T10:03:50.442Z,4.60
2018-02-03T10:06:17.441Z,4.60
2018-02-03T10:08:44.355Z,4.70
2018-02-03T10:11:12.025Z,4.90
2018-02-03T10:13:38.617Z,4.80
2018-02-03T10:16:04.537Z,4.90
2018-02-03T10:18:30.475Z,4.90
2018-02-03T10:20:56.430Z,4.90
2018-02-03T10:23:23.972Z,5.10
2018-02-03T10:25:49.928Z,5.10
2018-02-03T10:28:17.128Z,5.10
2018-02-03T10:30:44.385Z,5.10
2018-02-03T10:33:13.209Z,5.10
2018-02-03T10:35:40.083Z,5.00
2018-02-03T10:38:07.890Z,5.00
2018-02-03T10:40:35.747Z,5.00
2018-02-03T10:43:02.291Z,4.80
2018-02-03T10:45:28.261Z,4.90
2018-02-03T10:47:54.923Z,4.80
2018-02-03T10:50:20.951Z,4.90
2018-02-03T10:52:47.789Z,4.60
2018-02-03T10:55:15.266Z,4.60
2018-02-03T10:57:41.467Z,4.70
2018-02-03T11:00:08.541Z,4.60
2018-02-03T11:02:34.502Z,4.60
2018-02-03T11:05:00.507Z,4.60
2018-02-03T11:07:26.570Z,4.60
2018-02-03T11:09:53.938Z,4.60
2018-02-03T11:12:19.964Z,4.50
2018-02-03T11:14:45.927Z,4.70
2018-02-03T11:17:11.884Z,4.90
2018-02-03T11:19:37.990Z,5.10
2018-02-03T11:22:04.569Z,5.20
2018-02-03T11:24:33.009Z,5.20
2018-02-03T11:26:59.271Z,5.20
2018-02-03T11:29:27.602Z,5.20
2018-02-03T11:31:54.274Z,5.30
2018-02-03T11:34:22.977Z,5.60
2018-02-03T11:36:55.092Z,5.60
2018-02-03T11:39:21.873Z,5.70
2018-02-03T11:41:49.724Z,5.70
2018-02-03T11:44:17.588Z,5.60
2018-02-03T11:46:45.861Z,5.50
2018-02-03T11:49:11.963Z,5.40
2018-02-03T11:51:41.025Z,5.30
2018-02-03T11:54:09.461Z,5.20
2018-02-03T11:56:37.304Z,5.20
2018-02-03T11:59:03.402Z,5.20
2018-02-03T12:01:29.543Z,5.10
2018-02-03T12:03:56.582Z,4.90
2018-02-03T12:06:22.695Z,5.00
2018-02-03T12:08:49.891Z,5.00
2018-02-03T12:11:19.386Z,5.10
2018-02-03T12:13:45.422Z,5.00
2018-02-03T12:16:12.568Z,5.10
2018-02-03T12:18:39.991Z,5.10
2018-02-03T12:21:06.776Z,5.10
2018-02-03T12:23:32.720Z,5.20
2018-02-03T12:25:58.689Z,5.20
2018-02-03T12:28:24.667Z,5.10
2018-02-03T12:30:50.744Z,5.10
2018-02-03T12:33:17.557Z,5.10
2018-02-03T12:35:43.527Z,5.10
2018-02-03T12:38:09.829Z,5.10
2018-02-03T12:40:36.310Z,5.10
2018-02-03T12:43:04.003Z,5.10
2018-02-03T12:45:32.221Z,5.10
2018-02-03T12:47:59.350Z,5.20
2018-02-03T12:50:25.348Z,5.20
2018-02-03T12:52:51.558Z,5.30
2018-02-03T12:55:17.607Z,5.30
2018-02-03T12:57:43.558Z,5.40
2018-02-03T13:00:10.338Z,5.40
2018-02-03T13:02:37.012Z,5.50
2018-02-03T13:05:03.106Z,5.50
2018-02-03T13:07:29.149Z,5.40
2018-02-03T13:09:55.174Z,5.40
2018-02-03T13:12:21.810Z,5.30
2018-02-03T13:14:49.833Z,5.30
2018-02-03T13:17:18.367Z,5.30
2018-02-03T13:19:44.366Z,5.40
2018-02-03T13:22:14.507Z,5.50
2018-02-03T13:24:40.965Z,5.50
2018-02-03T13:27:09.236Z,5.50
2018-02-03T13:29:35.320Z,5.40
2018-02-03T13:32:02.285Z,5.40
2018-02-03T13:34:35.861Z,5.30
2018-02-03T13:37:01.856Z,5.40
2018-02-03T13:39:29.848Z,5.40
2018-02-03T13:41:55.886Z,5.40
2018-02-03T13:44:22.526Z,5.50
2018-02-03T13:46:48.930Z,5.40
2018-02-03T13:51:46.527Z,5.60
2018-02-03T13:54:12.571Z,5.50
2018-02-03T13:56:39.535Z,5.60
2018-02-03T13:59:05.567Z,5.60
2018-02-03T14:01:32.508Z,5.60
2018-02-03T14:03:58.767Z,5.70
2018-02-03T14:06:25.904Z,5.50
2018-02-03T14:08:52.972Z,5.40
2018-02-03T14:11:19.438Z,5.30
2018-02-03T14:13:45.489Z,5.20
2018-02-03T14:16:12.152Z,5.30
2018-02-03T14:18:39.092Z,5.30
2018-02-03T14:21:06.778Z,5.30
2018-02-03T14:23:34.056Z,5.30
2018-02-03T14:26:06.147Z,5.40
2018-02-03T14:28:33.303Z,5.30
2018-02-03T14:31:00.413Z,5.40
2018-02-03T14:33:27.289Z,5.40
2018-02-03T14:35:53.865Z,5.40
2018-02-03T14:38:22.130Z,5.30
2018-02-03T14:40:52.974Z,5.30
2018-02-03T14:43:21.008Z,5.30
2018-02-03T14:45:53.808Z,5.30
2018-02-03T14:48:21.699Z,5.30
2018-02-03T14:50:51.485Z,5.20
2018-02-03T14:53:18.338Z,5.30
2018-02-03T14:55:47.187Z,5.20
2018-02-03T14:58:15.048Z,5.10
2018-02-03T15:00:42.631Z,5.20
2018-02-03T15:03:11.181Z,5.10
2018-02-03T15:05:39.345Z,5.20
2018-02-03T15:08:09.777Z,5.10
2018-02-03T15:10:37.495Z,5.00
2018-02-03T15:13:03.599Z,5.00
2018-02-03T15:15:30.786Z,5.00
2018-02-03T15:17:57.649Z,5.00
2018-02-03T15:20:26.967Z,5.00
2018-02-03T15:22:55.389Z,5.00
2018-02-03T15:25:26.421Z,5.00
2018-02-03T15:28:05.162Z,5.10
2018-02-03T15:30:31.156Z,5.10
2018-02-03T15:32:59.968Z,5.20
2018-02-03T15:35:26.884Z,5.30
2018-02-03T15:37:57.004Z,5.20
2018-02-03T15:43:05.059Z,5.00
2018-02-03T15:45:31.381Z,4.80
2018-02-03T15:47:59.053Z,4.80
2018-02-03T15:50:26.425Z,4.70
2018-02-03T15:55:25.670Z,4.60
2018-02-03T15:57:55.312Z,4.70
2018-02-03T16:00:23.044Z,4.70
2018-02-03T16:02:55.947Z,4.70
2018-02-03T16:05:22.681Z,4.50
2018-02-03T16:16:30.899Z,4.50
2018-02-03T16:18:57.794Z,4.50
2018-02-03T16:24:03.720Z,4.50
2018-02-03T16:26:30.128Z,4.20
2018-02-03T16:28:56.299Z,4.30
2018-02-03T16:36:39.113Z,4.00
2018-02-03T16:39:05.154Z,4.00
2018-02-03T16:41:31.393Z,4.20
2018-02-03T16:44:01.896Z,4.00
2018-02-03T16:46:28.147Z,4.00
2018-02-03T16:48:54.092Z,4.10
2018-02-03T16:51:21.654Z,4.10
2018-02-03T16:53:47.628Z,4.10
2018-02-03T16:56:14.524Z,4.10
2018-02-03T16:58:41.468Z,4.00
2018-02-03T17:01:07.491Z,3.90
2018-02-03T17:03:34.637Z,3.70
2018-02-03T17:06:00.622Z,3.60
2018-02-03T17:08:27.886Z,3.60
2018-02-03T17:10:54.615Z,3.60
2018-02-03T17:13:21.514Z,3.50
2018-02-03T17:15:48.520Z,3.50
2018-02-03T17:18:15.490Z,3.50
2018-02-03T17:20:41.457Z,3.60
2018-02-03T17:23:08.007Z,3.60
2018-02-03T17:25:35.350Z,3.50
2018-02-03T17:28:02.158Z,3.50
2018-02-03T17:30:28.145Z,3.60
2018-02-03T17:32:54.139Z,3.60
2018-02-03T17:35:20.970Z,3.70
2018-02-03T17:37:53.169Z,3.80
2018-02-03T17:40:19.720Z,3.70
2018-02-03T17:42:47.474Z,3.70
2018-02-03T17:45:19.641Z,3.70
2018-02-03T17:47:45.638Z,3.70
2018-02-03T17:50:12.014Z,3.70
2018-02-03T17:52:37.971Z,3.70
2018-02-03T17:55:04.043Z,3.80
2018-02-03T17:57:38.142Z,3.80
2018-02-03T18:00:04.251Z,3.90
2018-02-03T18:02:30.274Z,3.90
2018-02-03T18:04:56.231Z,4.10
2018-02-03T18:07:22.148Z,4.10
2018-02-03T18:09:48.171Z,4.10
2018-02-03T18:12:15.097Z,4.10
2018-02-03T18:14:41.777Z,4.00
2018-02-03T18:17:08.623Z,4.00
2018-02-03T18:19:34.607Z,4.00
2018-02-03T18:22:01.730Z,3.90
2018-02-03T18:24:28.594Z,3.80
2018-02-03T18:26:54.650Z,3.70
2018-02-03T18:29:22.319Z,3.70
2018-02-03T18:31:48.336Z,3.80
2018-02-03T18:34:14.446Z,3.80
2018-02-03T18:36:42.177Z,3.70
2018-02-03T18:39:08.210Z,3.70
2018-02-03T18:41:35.119Z,3.80
2018-02-03T18:44:01.956Z,3.80
2018-02-03T18:46:28.983Z,3.80
2018-02-03T18:48:55.795Z,3.80
2018-02-03T18:51:22.953Z,3.80
2018-02-03T18:53:49.033Z,3.80
2018-02-03T18:56:15.093Z,3.80
2018-02-03T18:58:41.102Z,3.80
2018-02-03T19:01:07.114Z,3.70
2018-02-03T19:03:38.008Z,3.70
2018-02-03T19:06:04.062Z,3.50
2018-02-03T19:08:30.046Z,3.60
2018-02-03T19:10:56.064Z,3.70
2018-02-03T19:13:22.050Z,3.70
2018-02-03T19:15:48.067Z,3.70
2018-02-03T19:18:14.008Z,3.80
2018-02-03T19:20:40.658Z,3.70
2018-02-03T19:23:06.814Z,3.70
2018-02-03T19:25:32.856Z,3.60
2018-02-03T19:27:59.599Z,3.70
2018-02-03T19:30:26.381Z,3.70
2018-02-03T19:32:52.367Z,3.60
2018-02-03T19:35:18.335Z,3.60
2018-02-03T19:37:44.289Z,3.60
2018-02-03T19:40:10.430Z,3.60
2018-02-03T19:42:36.970Z,3.50
2018-02-03T19:45:03.661Z,3.50
2018-02-03T19:47:30.377Z,3.50
2018-02-03T19:49:56.432Z,3.50
2018-02-03T19:52:22.493Z,3.60
2018-02-03T19:54:49.367Z,3.50
2018-02-03T19:57:15.313Z,3.50
2018-02-03T19:59:41.255Z,3.50
2018-02-03T20:02:07.298Z,3.50
2018-02-03T20:04:33.263Z,3.30
2018-02-03T20:06:59.185Z,3.30
2018-02-03T20:09:25.167Z,3.40
2018-02-03T20:11:51.268Z,3.50
2018-02-03T20:14:17.194Z,3.30
2018-02-03T20:16:43.106Z,3.30
2018-02-03T20:19:09.046Z,3.30
2018-02-03T20:21:35.038Z,3.20
2018-02-03T20:24:01.020Z,3.30
2018-02-03T20:26:27.026Z,3.20
2018-02-03T20:28:53.045Z,3.30
2018-02-03T20:31:19.052Z,3.20
2018-02-03T20:33:44.984Z,3.30
2018-02-03T20:36:11.692Z,3.20
2018-02-03T20:38:38.568Z,3.20
2018-02-03T20:41:05.412Z,3.20
2018-02-03T20:43:31.388Z,3.10
2018-02-03T20:45:57.352Z,3.20
2018-02-03T20:48:24.796Z,3.10
2018-02-03T20:50:51.590Z,3.00
2018-02-03T20:53:19.128Z,3.00
2018-02-03T20:55:45.154Z,3.00
2018-02-03T20:58:11.130Z,3.00
2018-02-03T21:00:37.118Z,3.00
2018-02-03T21:03:03.098Z,2.90
2018-02-03T21:05:29.791Z,2.80
2018-02-03T21:07:56.656Z,2.80
2018-02-03T21:10:23.675Z,2.80
2018-02-03T21:12:49.667Z,2.90
2018-02-03T21:15:15.685Z,2.90
2018-02-03T21:17:41.655Z,2.80
2018-02-03T21:20:07.616Z,2.70
2018-02-03T21:22:33.599Z,2.80
2018-02-03T21:24:59.559Z,2.70
2018-02-03T21:27:26.523Z,2.70
2018-02-03T21:29:53.346Z,2.60
2018-02-03T21:32:19.430Z,2.60
2018-02-03T21:34:45.362Z,2.70
2018-02-03T21:37:11.279Z,2.50
2018-02-03T21:39:37.294Z,2.60
2018-02-03T21:42:03.423Z,2.70
2018-02-03T21:44:29.391Z,2.60
2018-02-03T21:46:55.354Z,2.70
2018-02-03T21:49:21.415Z,2.60
2018-02-03T21:51:47.502Z,2.80
2018-02-03T21:54:13.594Z,2.70
2018-02-03T21:56:39.710Z,2.70
2018-02-03T21:59:05.765Z,2.80
2018-02-03T22:01:31.795Z,2.80
2018-02-03T22:03:58.614Z,2.80
2018-02-03T22:06:25.253Z,2.80
2018-02-03T22:08:51.930Z,2.80
2018-02-03T22:11:17.898Z,2.70
2018-02-03T22:13:44.025Z,2.80
2018-02-03T22:16:10.029Z,2.80
2018-02-03T22:18:35.974Z,2.60
2018-02-03T22:21:02.043Z,2.70
2018-02-03T22:23:28.015Z,2.70
2018-02-03T22:25:54.128Z,2.70
2018-02-03T22:28:20.136Z,2.60
2018-02-03T22:30:46.105Z,2.80
2018-02-03T22:33:12.075Z,2.70
2018-02-03T22:35:38.816Z,2.80
2018-02-03T22:38:04.863Z,2.80
2018-02-03T22:40:31.796Z,2.80
2018-02-03T22:42:57.916Z,2.70
2018-02-03T22:45:23.890Z,2.70
2018-02-03T22:47:50.035Z,2.70
2018-02-03T22:50:15.965Z,2.60
2018-02-03T22:52:41.974Z,2.50
2018-02-03T22:55:07.982Z,2.50
2018-02-03T22:57:33.958Z,2.50
2018-02-03T22:59:59.931Z,2.50
2018-02-03T23:02:32.071Z,2.60
2018-02-03T23:04:58.059Z,2.60
2018-02-03T23:07:24.015Z,2.50
2018-02-03T23:09:50.105Z,2.60
2018-02-03T23:12:16.808Z,2.60
2018-02-03T23:14:42.763Z,2.50
2018-02-03T23:17:09.267Z,2.50
2018-02-03T23:19:35.286Z,2.50
2018-02-03T23:22:01.332Z,2.50
2018-02-03T23:24:28.107Z,2.30
2018-02-03T23:26:54.059Z,2.30
2018-02-03T23:29:21.051Z,2.40
2018-02-03T23:31:47.061Z,2.40
2018-02-03T23:34:13.780Z,2.40
2018-02-03T23:36:39.836Z,2.40
2018-02-03T23:39:07.601Z,2.40
2018-02-03T23:41:34.583Z,2.50
2018-02-03T23:44:00.853Z,2.40
2018-02-03T23:46:27.972Z,2.40
2018-02-03T23:48:53.935Z,2.30
2018-02-03T23:51:20.775Z,2.40
2018-02-03T23:53:48.287Z,2.40
2018-02-03T23:56:14.258Z,2.40
2018-02-03T23:58:41.106Z,2.50
